Time;durP1;ratioP1;P1;durP2;ratioP2;P2;SDS_P1;SDS_P2;PMS_P1;PMS_P2;Temp;Humidity;BMP_temperature;BMP_pressure;BME280_temperature;BME280_humidity;BME280_pressure;Samples;Min_cycle;Max_cycle;Signal;HPM_P1;HPM_P2
2022/09/14 00:02:06;;;;;;;7.22;4.03;;;19.80;91.00;;;;;;4973920;28;20042;-65
2022/09/14 00:04:32;;;;;;;5.80;4.05;;;19.70;91.10;;;;;;4974597;28;20034;-66
2022/09/14 00:06:58;;;;;;;5.88;3.53;;;19.70;91.30;;;;;;4973879;28;20031;-67
2022/09/14 00:09:24;;;;;;;7.00;3.67;;;19.70;91.60;;;;;;4986339;28;20022;-67
2022/09/14 00:11:51;;;;;;;8.32;3.88;;;19.60;92.00;;;;;;4993671;28;20030;-66
2022/09/14 00:14:18;;;;;;;6.03;3.72;;;19.60;92.20;;;;;;4993164;28;20038;-65
2022/09/14 00:16:44;;;;;;;10.25;4.30;;;19.60;91.90;;;;;;4993251;28;20406;-66
2022/09/14 00:19:25;;;;;;;7.10;4.68;;;19.50;91.80;;;;;;4990231;28;20061;-67
2022/09/14 00:21:57;;;;;;;7.40;4.45;;;19.60;92.00;;;;;;4993530;28;20037;-66
2022/09/14 00:24:25;;;;;;;5.75;3.90;;;19.50;92.00;;;;;;4993721;28;20070;-65
2022/09/14 00:26:51;;;;;;;8.02;3.97;;;19.60;92.10;;;;;;4993273;28;20032;-65
2022/09/14 00:29:17;;;;;;;5.00;3.90;;;19.60;92.40;;;;;;4992815;28;20378;-65
2022/09/14 00:31:44;;;;;;;6.78;3.58;;;19.60;92.10;;;;;;4993157;28;20088;-66
2022/09/14 00:34:13;;;;;;;6.30;4.10;;;19.60;92.10;;;;;;4992964;28;20161;-65
2022/09/14 00:36:41;;;;;;;6.07;3.83;;;19.60;92.40;;;;;;4993380;28;20153;-65
2022/09/14 00:39:08;;;;;;;7.22;3.42;;;19.50;92.80;;;;;;4993045;28;20027;-65
2022/09/14 00:41:40;;;;;;;6.90;3.67;;;19.50;93.00;;;;;;4992999;28;20121;-66
2022/09/14 00:44:07;;;;;;;8.52;4.93;;;19.50;93.40;;;;;;4993080;28;20023;-65
2022/09/14 00:46:58;;;;;;;6.72;4.05;;;19.50;93.40;;;;;;4997573;28;20069;-65
2022/09/14 00:49:27;;;;;;;7.22;4.03;;;19.50;93.40;;;;;;4999550;28;20133;-65
2022/09/14 00:52:07;;;;;;;8.15;4.28;;;19.50;93.70;;;;;;4999842;28;20038;-65
2022/09/14 00:54:34;;;;;;;4.78;3.55;;;19.40;93.90;;;;;;4999773;28;20026;-65
2022/09/14 00:57:02;;;;;;;7.05;3.95;;;19.40;93.90;;;;;;4999614;28;20037;-70
2022/09/14 00:59:32;;;;;;;7.70;3.95;;;19.40;93.90;;;;;;4999929;28;20358;-66
2022/09/14 01:01:57;;;;;;;5.32;3.95;;;19.40;94.10;;;;;;4999493;28;20418;-66
2022/09/14 01:04:23;;;;;;;6.35;4.20;;;19.40;93.90;;;;;;4999406;28;20030;-65
2022/09/14 01:06:56;;;;;;;7.00;3.38;;;19.40;94.10;;;;;;4999626;28;20131;-65
2022/09/14 01:09:31;;;;;;;6.53;3.63;;;19.40;93.80;;;;;;4999370;28;20037;-67
2022/09/14 01:12:13;;;;;;;6.85;4.13;;;19.40;93.80;;;;;;4999783;28;20057;-66
2022/09/14 01:14:57;;;;;;;6.40;4.18;;;19.40;93.90;;;;;;4999770;28;20049;-66
2022/09/14 01:17:52;;;;;;;9.15;4.65;;;19.30;94.20;;;;;;4998880;28;20031;-67
2022/09/14 01:20:32;;;;;;;6.07;4.10;;;19.30;94.10;;;;;;4999242;28;20100;-66
2022/09/14 01:22:58;;;;;;;7.10;4.20;;;19.30;94.50;;;;;;4981987;28;20042;-66
2022/09/14 01:25:24;;;;;;;9.13;4.10;;;19.20;94.50;;;;;;4999119;28;20482;-66
2022/09/14 01:27:50;;;;;;;5.47;3.58;;;19.20;95.00;;;;;;4999764;28;20093;-66
2022/09/14 01:30:23;;;;;;;5.88;3.80;;;19.20;95.20;;;;;;4998966;28;20037;-66
2022/09/14 01:33:14;;;;;;;8.68;4.40;;;19.20;95.20;;;;;;4999348;28;20120;-66
2022/09/14 01:35:56;;;;;;;8.95;3.95;;;19.20;94.90;;;;;;4999598;28;20034;-66
2022/09/14 01:38:36;;;;;;;5.97;3.33;;;19.10;95.10;;;;;;4999073;28;20033;-66
2022/09/14 01:41:05;;;;;;;6.80;3.88;;;19.10;95.30;;;;;;4999333;28;20030;-65
2022/09/14 01:43:33;;;;;;;4.45;3.25;;;19.10;95.10;;;;;;4999500;28;20058;-65
2022/09/14 01:46:08;;;;;;;5.70;3.30;;;19.20;95.00;;;;;;4999264;28;20040;-66
2022/09/14 01:48:37;;;;;;;5.32;3.33;;;19.20;95.10;;;;;;4999276;28;20036;-66
2022/09/14 01:51:09;;;;;;;4.00;2.65;;;19.20;95.40;;;;;;4999329;28;20025;-66
2022/09/14 01:53:46;;;;;;;3.85;2.85;;;19.20;95.00;;;;;;4999338;28;20026;-64
2022/09/14 01:56:23;;;;;;;3.70;2.95;;;19.20;94.80;;;;;;4998826;28;20052;-67
2022/09/14 01:59:01;;;;;;;5.00;3.30;;;19.20;94.60;;;;;;4995408;28;20031;-67
2022/09/14 02:01:35;;;;;;;4.18;3.25;;;19.20;94.50;;;;;;4995681;28;20070;-66
2022/09/14 02:04:05;;;;;;;4.07;2.75;;;19.20;94.60;;;;;;4995913;28;20176;-66
2022/09/14 02:06:42;;;;;;;4.03;2.72;;;19.20;94.60;;;;;;4995541;28;20029;-66
2022/09/14 02:09:11;;;;;;;5.78;3.10;;;19.30;94.80;;;;;;4995472;28;20417;-67
2022/09/14 02:11:37;;;;;;;5.40;3.00;;;19.30;94.90;;;;;;4995883;28;20026;-66
2022/09/14 02:14:04;;;;;;;4.55;3.20;;;19.20;94.80;;;;;;4995653;28;20071;-66
2022/09/14 02:16:29;;;;;;;7.35;3.03;;;19.20;94.70;;;;;;4994561;28;20033;-66
2022/09/14 02:18:55;;;;;;;2.50;2.25;;;19.20;94.60;;;;;;4995624;28;20466;-65
2022/09/14 02:21:25;;;;;;;5.13;2.88;;;19.20;95.00;;;;;;4995268;28;20039;-65
2022/09/14 02:23:51;;;;;;;4.07;2.75;;;19.20;94.70;;;;;;4994031;28;20034;-67
2022/09/14 02:26:19;;;;;;;5.68;2.53;;;19.20;94.50;;;;;;4977370;28;20033;-67
2022/09/14 02:28:45;;;;;;;4.53;2.88;;;19.20;94.40;;;;;;4975951;28;20027;-67
2022/09/14 02:31:30;;;;;;;4.07;2.53;;;19.10;94.60;;;;;;4975467;28;20026;-65
2022/09/14 02:33:58;;;;;;;7.13;2.90;;;19.10;94.60;;;;;;4975967;28;20026;-65
2022/09/14 02:36:30;;;;;;;3.80;2.80;;;19.10;94.60;;;;;;4975475;28;20129;-67
2022/09/14 02:39:05;;;;;;;3.63;2.35;;;19.00;94.70;;;;;;4976005;28;20189;-66
2022/09/14 02:41:50;;;;;;;4.90;2.78;;;19.00;94.70;;;;;;4957275;28;20031;-65
2022/09/14 02:44:42;;;;;;;3.35;2.30;;;19.00;94.70;;;;;;4975546;28;20027;-67
2022/09/14 02:47:34;;;;;;;5.43;2.33;;;19.00;94.80;;;;;;4975621;28;20497;-66
2022/09/14 02:50:31;;;;;;;2.90;2.17;;;18.90;95.00;;;;;;4975619;28;20042;-66
2022/09/14 02:53:11;;;;;;;3.30;2.25;;;18.90;94.80;;;;;;4975778;28;20038;-66
2022/09/14 02:55:47;;;;;;;6.57;2.50;;;18.90;94.90;;;;;;4975783;28;20038;-66
2022/09/14 02:58:13;;;;;;;4.07;2.40;;;18.90;95.20;;;;;;4975345;28;20069;-70
2022/09/14 03:00:44;;;;;;;2.88;2.30;;;18.80;95.00;;;;;;4975319;28;20018;-66
2022/09/14 03:03:13;;;;;;;2.65;2.00;;;18.80;95.00;;;;;;4975383;28;20031;-66
2022/09/14 03:05:39;;;;;;;3.15;1.65;;;18.80;95.20;;;;;;4975410;28;20062;-66
2022/09/14 03:08:05;;;;;;;5.32;2.00;;;18.80;95.20;;;;;;4975344;28;20027;-65
2022/09/14 03:10:31;;;;;;;4.10;2.50;;;18.80;95.30;;;;;;4974639;28;20360;-65
2022/09/14 03:12:57;;;;;;;3.60;1.92;;;18.80;95.20;;;;;;4975301;28;20043;-65
2022/09/14 03:15:23;;;;;;;2.58;2.38;;;18.80;95.10;;;;;;4974471;28;20030;-65
2022/09/14 03:17:50;;;;;;;2.38;1.90;;;18.80;95.40;;;;;;4975059;28;20026;-65
2022/09/14 03:20:18;;;;;;;4.05;2.50;;;18.80;95.50;;;;;;4957247;28;20033;-66
2022/09/14 03:22:44;;;;;;;2.50;2.13;;;18.80;95.40;;;;;;4974868;28;20069;-66
2022/09/14 03:25:10;;;;;;;4.57;2.47;;;18.80;95.60;;;;;;4975083;28;20037;-65
2022/09/14 03:27:35;;;;;;;3.28;2.22;;;18.80;95.40;;;;;;4974516;28;20027;-65
2022/09/14 03:30:02;;;;;;;6.35;2.10;;;18.80;95.40;;;;;;4975124;28;20062;-65
2022/09/14 03:32:28;;;;;;;5.82;2.30;;;18.80;95.90;;;;;;4974393;28;20078;-65
2022/09/14 03:34:53;;;;;;;4.75;2.38;;;18.80;96.00;;;;;;4974753;28;20023;-65
2022/09/14 03:37:19;;;;;;;2.45;1.77;;;18.80;95.90;;;;;;4973877;28;20503;-66
2022/09/14 03:39:44;;;;;;;4.28;2.55;;;18.80;95.70;;;;;;4974667;28;20054;-67
2022/09/14 03:42:10;;;;;;;4.88;2.50;;;18.80;95.50;;;;;;4974052;28;20134;-66
2022/09/14 03:44:36;;;;;;;6.07;2.65;;;18.80;95.90;;;;;;4974257;28;20030;-66
2022/09/14 03:47:02;;;;;;;4.63;2.70;;;18.80;96.10;;;;;;4974907;28;20023;-66
2022/09/14 03:49:27;;;;;;;5.25;2.30;;;18.80;95.70;;;;;;4973998;28;20034;-66
2022/09/14 03:51:53;;;;;;;5.15;1.80;;;18.80;95.80;;;;;;4974393;28;20027;-66
2022/09/14 03:54:18;;;;;;;2.67;2.28;;;18.80;96.50;;;;;;4956610;28;20027;-66
2022/09/14 03:56:44;;;;;;;5.47;2.78;;;18.70;96.60;;;;;;4974505;28;20059;-65
2022/09/14 03:59:10;;;;;;;3.83;2.22;;;18.70;96.40;;;;;;4974264;28;20387;-66
2022/09/14 04:01:37;;;;;;;4.00;2.20;;;18.70;96.40;;;;;;4974016;28;20039;-66
2022/09/14 04:04:03;;;;;;;4.22;1.77;;;18.80;96.50;;;;;;4974348;28;20118;-66
2022/09/14 04:06:29;;;;;;;7.32;2.53;;;18.80;96.50;;;;;;4973951;28;20026;-65
2022/09/14 04:08:54;;;;;;;3.03;2.25;;;18.70;96.90;;;;;;4974213;28;20048;-66
2022/09/14 04:11:24;;;;;;;6.32;2.40;;;18.70;96.90;;;;;;4973528;28;20154;-66
2022/09/14 04:13:50;;;;;;;5.07;2.50;;;18.70;96.90;;;;;;4974016;28;20026;-65
2022/09/14 04:16:19;;;;;;;7.10;3.55;;;18.70;97.30;;;;;;4976398;28;20059;-65
2022/09/14 04:18:45;;;;;;;7.38;4.13;;;18.70;97.70;;;;;;4973928;28;20065;-65
2022/09/14 04:21:20;;;;;;;5.05;3.60;;;18.70;98.00;;;;;;4973175;28;20102;-66
2022/09/14 04:23:46;;;;;;;6.70;3.72;;;18.70;98.50;;;;;;4983645;28;20054;-65
2022/09/14 04:26:15;;;;;;;6.30;3.47;;;18.70;98.70;;;;;;4993245;28;20147;-66
2022/09/14 04:28:41;;;;;;;7.38;3.70;;;18.70;98.90;;;;;;4992787;28;20049;-65
2022/09/14 04:31:09;;;;;;;5.30;3.53;;;18.70;99.40;;;;;;4993466;28;20065;-65
2022/09/14 04:33:35;;;;;;;5.28;3.85;;;18.70;99.50;;;;;;4992956;28;20019;-66
2022/09/14 04:36:04;;;;;;;7.30;3.75;;;18.70;99.70;;;;;;4993119;28;20077;-66
2022/09/14 04:38:31;;;;;;;6.53;3.92;;;18.70;99.80;;;;;;4992382;28;20030;-67
2022/09/14 04:40:58;;;;;;;4.50;3.65;;;18.70;99.90;;;;;;4992988;28;20443;-66
2022/09/14 04:43:24;;;;;;;7.72;3.60;;;18.70;99.90;;;;;;4992249;28;20065;-66
2022/09/14 04:45:51;;;;;;;5.95;3.95;;;18.70;99.90;;;;;;4993158;28;20037;-66
2022/09/14 04:48:17;;;;;;;8.82;3.38;;;18.60;99.90;;;;;;4993230;28;20065;-67
2022/09/14 04:50:43;;;;;;;8.95;4.10;;;18.60;99.90;;;;;;4992851;28;20062;-67
2022/09/14 04:53:09;;;;;;;6.53;3.88;;;18.70;99.90;;;;;;4976095;28;20034;-67
2022/09/14 04:55:35;;;;;;;7.63;3.88;;;18.70;99.90;;;;;;4992572;28;20390;-67
2022/09/14 04:58:01;;;;;;;5.15;3.45;;;18.70;99.90;;;;;;4993109;28;20019;-67
2022/09/14 05:00:27;;;;;;;7.47;3.92;;;18.70;99.90;;;;;;4986245;28;20062;-67
2022/09/14 05:02:52;;;;;;;6.22;3.50;;;18.70;99.90;;;;;;4990495;28;20022;-67
2022/09/14 05:05:18;;;;;;;6.43;3.50;;;18.60;99.90;;;;;;4975067;28;20611;-67
2022/09/14 05:07:44;;;;;;;5.82;3.65;;;18.70;99.90;;;;;;4988329;28;20037;-67
2022/09/14 05:10:10;;;;;;;5.70;4.07;;;18.70;99.90;;;;;;4990603;28;20023;-67
2022/09/14 05:12:36;;;;;;;8.43;4.70;;;18.60;99.90;;;;;;4990382;28;20532;-67
2022/09/14 05:15:01;;;;;;;7.70;4.40;;;18.70;99.90;;;;;;4990412;28;20093;-66
2022/09/14 05:17:27;;;;;;;7.35;3.60;;;18.70;99.90;;;;;;4990020;28;20068;-66
2022/09/14 05:19:53;;;;;;;5.93;4.45;;;18.70;99.90;;;;;;4991179;28;20022;-66
2022/09/14 05:22:20;;;;;;;8.70;4.07;;;18.70;99.90;;;;;;4990749;28;20141;-67
2022/09/14 05:24:46;;;;;;;5.18;3.97;;;18.70;99.90;;;;;;4986134;28;20071;-67
2022/09/14 05:27:11;;;;;;;6.38;3.83;;;18.70;99.90;;;;;;4974036;28;20046;-66
2022/09/14 05:29:39;;;;;;;7.10;4.28;;;18.70;99.90;;;;;;4990305;28;20035;-65
2022/09/14 05:32:05;;;;;;;5.00;3.88;;;18.70;99.90;;;;;;4990392;28;20041;-65
2022/09/14 05:34:32;;;;;;;6.97;4.38;;;18.70;99.90;;;;;;4993946;28;20070;-66
2022/09/14 05:36:57;;;;;;;7.20;4.30;;;18.70;99.90;;;;;;4994666;28;20105;-66
2022/09/14 05:39:23;;;;;;;7.30;3.78;;;18.80;99.90;;;;;;4992966;28;20080;-67
2022/09/14 05:41:50;;;;;;;4.70;3.63;;;18.80;99.90;;;;;;4994867;28;20101;-66
2022/09/14 05:44:15;;;;;;;8.48;3.92;;;18.80;99.90;;;;;;4996289;28;20022;-66
2022/09/14 05:46:41;;;;;;;5.47;3.70;;;18.80;99.90;;;;;;4978083;28;20100;-66
2022/09/14 05:49:07;;;;;;;7.00;3.95;;;18.80;99.90;;;;;;4994173;28;20027;-66
2022/09/14 05:51:32;;;;;;;6.85;3.78;;;18.90;99.90;;;;;;4986029;28;20057;-67
2022/09/14 05:53:58;;;;;;;10.32;4.00;;;18.90;99.90;;;;;;4994566;28;20060;-66
2022/09/14 05:56:26;;;;;;;6.03;4.15;;;18.90;99.90;;;;;;4976996;28;20069;-66
2022/09/14 05:58:52;;;;;;;5.30;3.67;;;18.90;99.90;;;;;;4991342;28;20053;-66
2022/09/14 06:01:23;;;;;;;12.77;4.97;;;19.00;99.90;;;;;;4993725;28;20072;-66
2022/09/14 06:03:52;;;;;;;8.73;4.50;;;19.00;99.90;;;;;;4995456;28;20069;-66
2022/09/14 06:06:18;;;;;;;6.30;3.80;;;19.00;99.90;;;;;;4978370;28;20062;-66
2022/09/14 06:08:45;;;;;;;7.07;4.28;;;19.00;99.90;;;;;;4995649;28;20033;-66
2022/09/14 06:11:15;;;;;;;7.13;4.25;;;19.00;99.90;;;;;;4995897;28;20037;-67
2022/09/14 06:13:41;;;;;;;6.78;4.05;;;19.00;99.90;;;;;;4989661;28;20022;-67
2022/09/14 06:16:13;;;;;;;7.75;4.40;;;19.10;99.90;;;;;;4977197;28;20053;-66
2022/09/14 06:18:40;;;;;;;7.35;4.25;;;19.10;99.90;;;;;;4976873;28;20031;-67
2022/09/14 06:21:07;;;;;;;7.43;3.97;;;19.10;99.90;;;;;;4994544;28;20117;-67
2022/09/14 06:23:33;;;;;;;6.40;3.88;;;19.20;99.90;;;;;;4995008;28;20042;-67
2022/09/14 06:26:03;;;;;;;8.50;4.30;;;19.20;99.70;;;;;;4995373;28;20027;-67
2022/09/14 06:28:30;;;;;;;9.03;4.27;;;19.20;99.50;;;;;;4995921;28;20038;-66
2022/09/14 06:30:56;;;;;;;10.10;4.63;;;19.20;99.50;;;;;;4995391;28;20463;-67
2022/09/14 06:33:22;;;;;;;6.40;4.25;;;19.20;99.70;;;;;;4995434;28;20026;-66
2022/09/14 06:35:59;;;;;;;7.85;4.20;;;19.30;99.90;;;;;;4994911;28;20026;-68
2022/09/14 06:38:26;;;;;;;6.28;3.97;;;19.30;99.90;;;;;;4995324;28;20033;-66
2022/09/14 06:40:56;;;;;;;3.78;3.30;;;19.30;99.90;;;;;;4994630;28;20105;-67
2022/09/14 06:43:27;;;;;;;7.65;3.17;;;19.30;99.90;;;;;;4994075;28;20085;-68
2022/09/14 06:46:03;;;;;;;5.78;2.95;;;19.40;99.90;;;;;;4994820;28;20066;-68
2022/09/14 06:48:34;;;;;;;7.63;2.65;;;19.40;99.70;;;;;;4990404;28;20027;-69
2022/09/14 06:51:10;;;;;;;3.78;2.95;;;19.40;99.20;;;;;;4975655;28;20459;-69
2022/09/14 06:53:35;;;;;;;4.18;3.17;;;19.40;99.30;;;;;;4975190;28;20035;-68
2022/09/14 06:56:01;;;;;;;5.32;3.33;;;19.50;99.30;;;;;;4975199;28;20485;-68
2022/09/14 06:58:27;;;;;;;6.78;3.72;;;19.40;98.90;;;;;;4975576;28;20031;-68
2022/09/14 07:00:52;;;;;;;9.73;3.80;;;19.40;99.20;;;;;;4974732;28;20035;-69
2022/09/14 07:03:18;;;;;;;7.40;4.05;;;19.50;99.70;;;;;;4975117;28;20490;-69
2022/09/14 07:05:43;;;;;;;7.05;4.40;;;19.50;99.40;;;;;;4975091;28;20046;-69
2022/09/14 07:08:09;;;;;;;11.30;4.07;;;19.50;99.50;;;;;;4975382;28;20027;-68
2022/09/14 07:10:34;;;;;;;7.78;4.60;;;19.50;99.70;;;;;;4975024;28;20483;-70
2022/09/14 07:13:00;;;;;;;7.70;4.72;;;19.50;99.60;;;;;;4984212;28;20026;-68
2022/09/14 07:15:26;;;;;;;7.65;4.55;;;19.60;99.90;;;;;;4992391;28;20057;-68
2022/09/14 07:17:52;;;;;;;7.97;4.65;;;19.60;99.90;;;;;;4992153;28;20033;-70
2022/09/14 07:20:18;;;;;;;6.90;4.88;;;19.60;99.90;;;;;;4993631;28;20081;-69
2022/09/14 07:22:44;;;;;;;7.57;4.90;;;19.60;99.90;;;;;;4993851;28;20038;-69
2022/09/14 07:25:09;;;;;;;5.38;4.20;;;19.60;99.90;;;;;;4994390;28;20367;-69
2022/09/14 07:27:38;;;;;;;5.25;4.10;;;19.70;99.50;;;;;;4994404;28;20023;-72
2022/09/14 07:30:05;;;;;;;5.50;3.97;;;19.70;98.80;;;;;;4994354;28;20022;-69
2022/09/14 07:32:31;;;;;;;9.10;4.90;;;19.70;98.60;;;;;;4994686;28;20038;-69
2022/09/14 07:34:57;;;;;;;5.22;3.72;;;19.90;99.30;;;;;;4993740;28;20156;-69
2022/09/14 07:37:22;;;;;;;6.43;4.10;;;20.10;98.20;;;;;;4994201;28;20109;-68
2022/09/14 07:39:48;;;;;;;6.05;4.00;;;20.60;97.40;;;;;;4993436;28;20031;-69
2022/09/14 07:42:14;;;;;;;6.00;3.95;;;21.00;95.60;;;;;;4994050;28;20058;-69
2022/09/14 07:44:39;;;;;;;6.13;3.40;;;21.40;94.50;;;;;;4993604;28;20022;-70
2022/09/14 07:47:05;;;;;;;8.90;4.30;;;21.50;94.00;;;;;;4993990;28;20025;-68
2022/09/14 07:49:31;;;;;;;6.00;4.47;;;21.50;93.40;;;;;;4976700;28;20030;-68
2022/09/14 07:51:57;;;;;;;9.02;4.38;;;21.60;92.80;;;;;;4993649;28;20032;-69
2022/09/14 07:54:22;;;;;;;5.53;3.92;;;21.70;93.30;;;;;;4994450;28;20068;-69
2022/09/14 07:56:49;;;;;;;6.45;4.80;;;21.70;92.60;;;;;;4992857;28;20533;-69
2022/09/14 07:59:15;;;;;;;8.35;4.57;;;21.70;92.70;;;;;;4993842;28;20104;-69
2022/09/14 08:01:41;;;;;;;6.90;4.95;;;21.80;93.20;;;;;;4993204;28;20129;-70
2022/09/14 08:04:08;;;;;;;5.43;4.45;;;22.10;93.30;;;;;;4976783;28;20386;-70
2022/09/14 08:06:35;;;;;;;9.45;4.95;;;22.40;92.40;;;;;;4993838;28;20022;-70
2022/09/14 08:09:05;;;;;;;5.72;4.68;;;23.10;91.20;;;;;;4993287;28;20033;-69
2022/09/14 08:11:33;;;;;;;6.22;4.28;;;23.60;88.60;;;;;;4974685;28;20030;-70
2022/09/14 08:14:02;;;;;;;6.97;4.50;;;23.70;86.60;;;;;;4990023;28;20037;-68
2022/09/14 08:16:29;;;;;;;6.25;4.90;;;23.70;85.10;;;;;;4993435;28;20081;-69
2022/09/14 08:19:00;;;;;;;6.55;4.50;;;23.40;83.00;;;;;;4993100;28;20041;-69
2022/09/14 08:21:27;;;;;;;7.82;4.40;;;23.30;83.10;;;;;;4993568;28;20049;-69
2022/09/14 08:23:53;;;;;;;7.60;5.32;;;23.40;83.80;;;;;;4993013;28;20073;-69
2022/09/14 08:26:22;;;;;;;8.40;4.82;;;23.70;81.40;;;;;;4993650;28;20114;-69
2022/09/14 08:28:49;;;;;;;9.63;4.40;;;23.60;81.30;;;;;;4992693;28;20034;-68
2022/09/14 08:31:23;;;;;;;7.05;4.70;;;23.40;79.90;;;;;;4993230;28;20026;-68
2022/09/14 08:33:57;;;;;;;5.50;4.65;;;23.30;82.10;;;;;;4993000;28;20070;-68
2022/09/14 08:36:25;;;;;;;7.15;4.78;;;23.20;83.10;;;;;;4993035;28;20023;-69
2022/09/14 08:38:51;;;;;;;6.63;4.88;;;23.10;82.00;;;;;;4992742;28;20057;-68
2022/09/14 08:41:37;;;;;;;7.72;4.68;;;23.10;83.10;;;;;;4993701;28;20076;-68
2022/09/14 08:44:40;;;;;;;6.35;4.07;;;23.00;83.20;;;;;;4993439;28;20121;-69
2022/09/14 08:47:15;;;;;;;4.80;4.30;;;22.90;84.90;;;;;;4897996;29;20032;-69
2022/09/14 08:50:04;;;;;;;7.63;4.30;;;22.80;85.90;;;;;;4983514;28;20039;-68
2022/09/14 08:52:46;;;;;;;7.03;5.00;;;22.80;86.10;;;;;;4994568;28;20053;-69
2022/09/14 08:55:43;;;;;;;7.95;5.03;;;22.80;86.30;;;;;;4978589;28;20069;-67
2022/09/14 08:58:09;;;;;;;8.57;5.13;;;22.70;85.10;;;;;;4995653;28;20022;-67
2022/09/14 09:00:49;;;;;;;11.30;5.28;;;22.70;84.80;;;;;;4994440;28;20048;-68
2022/09/14 09:03:41;;;;;;;7.63;5.68;;;22.70;84.60;;;;;;4976906;28;20438;-68
2022/09/14 09:06:17;;;;;;;7.85;5.68;;;22.50;84.40;;;;;;4981135;28;20117;-67
2022/09/14 09:08:51;;;;;;;8.18;6.07;;;22.60;85.70;;;;;;4997453;28;20026;-70
2022/09/14 09:11:21;;;;;;;10.65;5.65;;;22.60;85.70;;;;;;4997120;28;20037;-68
2022/09/14 09:13:49;;;;;;;11.10;6.38;;;22.60;86.70;;;;;;4996681;28;20041;-70
2022/09/14 09:16:19;;;;;;;12.13;6.60;;;22.50;86.20;;;;;;4979423;28;20517;-67
2022/09/14 09:18:48;;;;;;;12.05;6.57;;;22.40;86.30;;;;;;4996335;28;20434;-70
2022/09/14 09:21:21;;;;;;;10.20;7.03;;;22.40;87.50;;;;;;4996749;28;20467;-69
2022/09/14 09:23:47;;;;;;;11.80;6.63;;;22.50;88.10;;;;;;4996241;28;20038;-69
2022/09/14 09:26:29;;;;;;;9.88;6.82;;;22.50;88.50;;;;;;4996874;28;20037;-69
2022/09/14 09:29:00;;;;;;;9.98;6.70;;;22.60;88.50;;;;;;4995756;28;20031;-68
2022/09/14 09:31:35;;;;;;;11.63;5.82;;;22.70;87.90;;;;;;4996514;28;20064;-69
2022/09/14 09:34:01;;;;;;;8.63;5.78;;;22.70;87.30;;;;;;4996261;28;20061;-70
2022/09/14 09:36:38;;;;;;;7.63;5.40;;;22.70;85.20;;;;;;4978789;28;20030;-68
2022/09/14 09:39:04;;;;;;;6.70;4.88;;;22.70;84.90;;;;;;4995346;28;20064;-68
2022/09/14 09:41:38;;;;;;;7.28;4.90;;;22.60;85.00;;;;;;4996230;28;20027;-68
2022/09/14 09:44:08;;;;;;;8.85;4.78;;;22.60;83.70;;;;;;4995661;28;20463;-68
2022/09/14 09:46:45;;;;;;;7.00;5.40;;;22.50;83.70;;;;;;4996645;28;20081;-68
2022/09/14 09:49:30;;;;;;;9.80;6.13;;;22.60;85.40;;;;;;4996330;28;20027;-68
2022/09/14 09:52:07;;;;;;;7.20;5.18;;;22.70;85.20;;;;;;4995915;28;20034;-68
2022/09/14 09:54:33;;;;;;;10.15;6.00;;;22.70;85.80;;;;;;4996219;28;20113;-68
2022/09/14 09:57:38;;;;;;;9.75;6.20;;;22.70;85.20;;;;;;4995493;28;20478;-68
2022/09/14 10:00:12;;;;;;;8.63;6.40;;;22.70;85.40;;;;;;4916282;29;20413;-68
2022/09/14 10:02:39;;;;;;;9.90;5.82;;;22.70;85.40;;;;;;4916677;29;20080;-68
2022/09/14 10:05:24;;;;;;;13.93;6.78;;;22.80;85.60;;;;;;4916066;29;20048;-69
2022/09/14 10:07:55;;;;;;;8.05;5.85;;;22.80;84.70;;;;;;4900404;29;20039;-68
2022/09/14 10:10:38;;;;;;;8.30;5.85;;;22.90;84.00;;;;;;4900703;29;20028;-67
2022/09/14 10:13:05;;;;;;;10.35;5.82;;;22.90;84.00;;;;;;4900175;29;20500;-69
2022/09/14 10:15:33;;;;;;;7.60;5.72;;;22.90;83.20;;;;;;4916330;29;20424;-69
2022/09/14 10:18:14;;;;;;;9.88;6.43;;;22.90;83.10;;;;;;4915006;29;20527;-68
2022/09/14 10:20:44;;;;;;;;;;;22.90;83.40;;;;;;4900639;29;20028;-67
2022/09/14 10:23:18;;;;;;;8.45;5.97;;;22.90;83.40;;;;;;4897085;29;19915;-68
2022/09/14 10:25:49;;;;;;;11.45;6.78;;;22.90;83.80;;;;;;4881712;29;20529;-68
2022/09/14 10:28:21;;;;;;;8.57;5.97;;;22.90;84.00;;;;;;4897437;29;20493;-69
2022/09/14 10:31:01;;;;;;;13.52;6.88;;;22.90;83.90;;;;;;4935927;28;20090;-68
2022/09/14 10:33:28;;;;;;;9.48;6.30;;;22.80;83.30;;;;;;4975885;28;20038;-68
2022/09/14 10:36:04;;;;;;;7.40;5.45;;;22.80;83.50;;;;;;4975094;28;20422;-71
2022/09/14 10:39:03;;;;;;;11.30;5.75;;;22.70;83.70;;;;;;4975930;28;20400;-68
2022/09/14 10:41:51;;;;;;;11.25;6.32;;;22.70;83.40;;;;;;4944793;28;20049;-69
2022/09/14 10:44:30;;;;;;;8.35;5.95;;;22.60;83.40;;;;;;4975889;28;20305;-69
2022/09/14 10:47:31;;;;;;;10.32;5.85;;;22.60;84.30;;;;;;4975071;28;20022;-70
2022/09/14 10:50:29;;;;;;;11.83;5.67;;;22.60;87.00;;;;;;4974851;28;20074;-69
2022/09/14 10:53:30;;;;;;;9.50;6.55;;;22.50;87.30;;;;;;4975138;28;20062;-70
2022/09/14 10:56:12;;;;;;;9.10;5.90;;;22.40;86.40;;;;;;4975313;28;20105;-69
2022/09/14 10:58:47;;;;;;;9.38;6.88;;;22.40;87.20;;;;;;4975608;28;20057;-69
2022/09/14 11:01:31;;;;;;;9.45;5.80;;;22.30;87.90;;;;;;4974724;28;20029;-69
2022/09/14 11:03:59;;;;;;;10.20;6.18;;;22.30;90.00;;;;;;4975087;28;20078;-69
2022/09/14 11:06:56;;;;;;;9.73;6.00;;;22.20;90.50;;;;;;4975052;28;20101;-68
2022/09/14 11:09:33;;;;;;;10.60;6.75;;;22.10;91.10;;;;;;4975038;28;20031;-69
2022/09/14 11:12:06;;;;;;;12.40;8.90;;;22.10;91.90;;;;;;4974442;28;20038;-68
2022/09/14 11:15:07;;;;;;;13.60;8.18;;;22.00;92.40;;;;;;4975748;28;20119;-68
2022/09/14 11:18:06;;;;;;;16.25;9.82;;;22.00;92.90;;;;;;4957769;28;20058;-69
2022/09/14 11:20:43;;;;;;;15.48;10.18;;;21.90;93.50;;;;;;4975108;28;20489;-68
2022/09/14 11:23:44;;;;;;;16.35;10.25;;;21.90;94.00;;;;;;4974615;28;20050;-68
2022/09/14 11:26:30;;;;;;;15.23;8.68;;;21.80;94.60;;;;;;4974332;28;20034;-68
2022/09/14 11:29:33;;;;;;;13.15;9.07;;;21.80;94.90;;;;;;4974235;28;20035;-70
2022/09/14 11:32:04;;;;;;;12.10;9.15;;;21.80;95.30;;;;;;4974472;28;20034;-69
2022/09/14 11:34:53;;;;;;;9.75;8.30;;;21.80;95.70;;;;;;4957578;28;20027;-68
2022/09/14 11:37:25;;;;;;;13.57;9.05;;;21.80;95.70;;;;;;4974766;28;20030;-68
2022/09/14 11:40:13;;;;;;;13.65;8.05;;;21.80;95.50;;;;;;4974242;28;20110;-67
2022/09/14 11:42:51;;;;;;;12.02;8.48;;;21.80;95.00;;;;;;4972934;28;20141;-68
2022/09/14 11:45:30;;;;;;;12.00;7.53;;;21.80;94.80;;;;;;4974261;28;20034;-69
2022/09/14 11:48:05;;;;;;;8.75;6.80;;;21.80;94.80;;;;;;4973656;28;20026;-69
2022/09/14 11:50:32;;;;;;;8.35;6.85;;;21.80;94.70;;;;;;4974770;28;20031;-68
2022/09/14 11:53:07;;;;;;;7.63;6.65;;;21.90;94.40;;;;;;4956870;28;20368;-68
2022/09/14 11:55:34;;;;;;;8.23;6.60;;;22.00;94.10;;;;;;4973131;28;20034;-69
2022/09/14 11:58:05;;;;;;;8.75;6.47;;;22.00;94.00;;;;;;4973832;28;20030;-68
2022/09/14 12:00:59;;;;;;;8.07;5.88;;;22.10;94.00;;;;;;4974330;28;20038;-69
2022/09/14 12:03:58;;;;;;;8.35;4.50;;;22.10;93.80;;;;;;4974136;28;20107;-69
2022/09/14 12:06:52;;;;;;;6.65;4.95;;;22.20;92.00;;;;;;4974269;28;20042;-68
2022/09/14 12:09:22;;;;;;;5.90;4.72;;;22.20;92.00;;;;;;4973434;28;20023;-68
2022/09/14 12:11:58;;;;;;;7.65;4.53;;;22.30;91.40;;;;;;4974552;28;20130;-68
2022/09/14 12:14:26;;;;;;;6.55;4.32;;;22.30;90.00;;;;;;4962361;28;20022;-69
2022/09/14 12:17:11;;;;;;;5.75;4.03;;;22.40;89.90;;;;;;4975447;28;20034;-69
2022/09/14 12:19:36;;;;;;;5.75;4.22;;;22.40;87.70;;;;;;4975396;28;20511;-68
2022/09/14 12:22:25;;;;;;;6.05;4.68;;;22.40;87.30;;;;;;4992432;28;20121;-67
2022/09/14 12:25:23;;;;;;;5.47;3.85;;;22.50;86.30;;;;;;4983250;28;20100;-68
2022/09/14 12:27:49;;;;;;;6.53;3.47;;;22.50;85.90;;;;;;4977351;28;20049;-68
2022/09/14 12:30:39;;;;;;;4.85;3.53;;;22.50;86.40;;;;;;4992800;28;20042;-68
2022/09/14 12:33:30;;;;;;;4.70;3.58;;;22.50;86.20;;;;;;4992625;28;20474;-68
2022/09/14 12:35:57;;;;;;;4.43;3.42;;;22.50;87.20;;;;;;4992984;28;20026;-70
2022/09/14 12:38:29;;;;;;;5.95;3.30;;;22.60;86.80;;;;;;4975624;28;20026;-68
2022/09/14 12:41:07;;;;;;;8.10;2.90;;;22.70;86.10;;;;;;4992765;28;20022;-68
2022/09/14 12:43:33;;;;;;;5.22;4.20;;;22.70;85.10;;;;;;4975952;28;20046;-68
2022/09/14 12:46:10;;;;;;;6.40;4.00;;;22.80;85.00;;;;;;4992903;28;20463;-72
2022/09/14 12:48:44;;;;;;;4.45;3.40;;;22.80;84.00;;;;;;4993161;28;20030;-68
2022/09/14 12:51:31;;;;;;;4.60;3.53;;;22.80;84.80;;;;;;4992719;28;20022;-67
2022/09/14 12:54:00;;;;;;;5.50;4.07;;;22.90;85.10;;;;;;4992563;28;20036;-69
2022/09/14 12:56:59;;;;;;;5.28;4.32;;;22.90;85.50;;;;;;4992713;28;20033;-68
2022/09/14 13:00:04;;;;;;;4.35;3.80;;;23.00;85.40;;;;;;4975436;28;20077;-69
2022/09/14 13:02:51;;;;;;;7.68;4.05;;;23.10;85.80;;;;;;4992842;28;20072;-68
2022/09/14 13:05:23;;;;;;;4.50;3.35;;;23.10;86.40;;;;;;4992407;28;20042;-68
2022/09/14 13:07:49;;;;;;;4.22;3.40;;;23.20;86.30;;;;;;4992888;28;20026;-69
2022/09/14 13:10:32;;;;;;;5.45;3.70;;;23.20;86.10;;;;;;4992554;28;20041;-69
2022/09/14 13:13:00;;;;;;;5.28;3.60;;;23.20;86.20;;;;;;4992971;28;20030;-68